<?xml version="1.0" encoding="UTF-8" standalone="no" ?>
<gpx xmlns="http://www.topografix.com/GPX/1/1" xmlns:xsi="http://www.w3.org/2001/XMLSchema-instance" xsi:schemaLocation="http://www.topografix.com/GPX/1/1 http://www.topografix.com/GPX/1/1/gpx.xsd" version="1.1" creator="VisuGPX - https://www.visugpx.com">
  <metadata>
    <name>13941034-Sentier de la Mariée</name>
  </metadata>
  <trk>
    <name><![CDATA[13941034-Sentier de la Mariée]]></name>
    <trkseg>
      <trkpt lat="46.92293" lon="-0.97168">
        <ele>203</ele>
        <time>2021-11-19T17:27:00Z</time>
      </trkpt>
      <trkpt lat="46.92283" lon="-0.97142">
        <ele>203</ele>
        <time>2021-11-19T17:27:16Z</time>
      </trkpt>
      <trkpt lat="46.92284" lon="-0.971">
        <ele>205</ele>
        <time>2021-11-19T17:27:39Z</time>
      </trkpt>
      <trkpt lat="46.92272" lon="-0.9707">
        <ele>205</ele>
        <time>2021-11-19T17:27:58Z</time>
      </trkpt>
      <trkpt lat="46.92329" lon="-0.96982">
        <ele>203</ele>
        <time>2021-11-19T17:29:05Z</time>
      </trkpt>
      <trkpt lat="46.9239" lon="-0.96911">
        <ele>197</ele>
        <time>2021-11-19T17:30:07Z</time>
      </trkpt>
      <trkpt lat="46.92443" lon="-0.96872">
        <ele>194</ele>
        <time>2021-11-19T17:30:55Z</time>
      </trkpt>
      <trkpt lat="46.92475" lon="-0.96835">
        <ele>191</ele>
        <time>2021-11-19T17:31:27Z</time>
      </trkpt>
      <trkpt lat="46.92517" lon="-0.96774">
        <ele>189</ele>
        <time>2021-11-19T17:32:15Z</time>
      </trkpt>
      <trkpt lat="46.92584" lon="-0.96703">
        <ele>185</ele>
        <time>2021-11-19T17:33:21Z</time>
      </trkpt>
      <trkpt lat="46.926" lon="-0.96678">
        <ele>184</ele>
        <time>2021-11-19T17:33:39Z</time>
      </trkpt>
      <trkpt lat="46.92604" lon="-0.96646">
        <ele>183</ele>
        <time>2021-11-19T17:33:57Z</time>
      </trkpt>
      <trkpt lat="46.92603" lon="-0.96586">
        <ele>182</ele>
        <time>2021-11-19T17:34:30Z</time>
      </trkpt>
      <trkpt lat="46.92622" lon="-0.96516">
        <ele>179</ele>
        <time>2021-11-19T17:35:11Z</time>
      </trkpt>
      <trkpt lat="46.92607" lon="-0.96501">
        <ele>178</ele>
        <time>2021-11-19T17:35:26Z</time>
      </trkpt>
      <trkpt lat="46.92578" lon="-0.96509">
        <ele>180</ele>
        <time>2021-11-19T17:35:49Z</time>
      </trkpt>
      <trkpt lat="46.9256" lon="-0.96515">
        <ele>181</ele>
        <time>2021-11-19T17:36:04Z</time>
      </trkpt>
      <trkpt lat="46.92527" lon="-0.96514">
        <ele>182</ele>
        <time>2021-11-19T17:36:31Z</time>
      </trkpt>
      <trkpt lat="46.9253" lon="-0.96474">
        <ele>182</ele>
        <time>2021-11-19T17:36:53Z</time>
      </trkpt>
      <trkpt lat="46.92535" lon="-0.96471">
        <ele>181</ele>
        <time>2021-11-19T17:36:57Z</time>
      </trkpt>
      <trkpt lat="46.92542" lon="-0.96436">
        <ele>181</ele>
        <time>2021-11-19T17:37:17Z</time>
      </trkpt>
      <trkpt lat="46.92623" lon="-0.9641">
        <ele>179</ele>
        <time>2021-11-19T17:38:23Z</time>
      </trkpt>
      <trkpt lat="46.92651" lon="-0.96398">
        <ele>179</ele>
        <time>2021-11-19T17:38:47Z</time>
      </trkpt>
      <trkpt lat="46.92681" lon="-0.96369">
        <ele>183</ele>
        <time>2021-11-19T17:39:15Z</time>
      </trkpt>
      <trkpt lat="46.927" lon="-0.96362">
        <ele>185</ele>
        <time>2021-11-19T17:39:31Z</time>
      </trkpt>
      <trkpt lat="46.92716" lon="-0.96344">
        <ele>188</ele>
        <time>2021-11-19T17:39:47Z</time>
      </trkpt>
      <trkpt lat="46.92726" lon="-0.9632">
        <ele>191</ele>
        <time>2021-11-19T17:40:03Z</time>
      </trkpt>
      <trkpt lat="46.92782" lon="-0.96316">
        <ele>196</ele>
        <time>2021-11-19T17:40:48Z</time>
      </trkpt>
      <trkpt lat="46.92793" lon="-0.9624">
        <ele>202</ele>
        <time>2021-11-19T17:41:30Z</time>
      </trkpt>
      <trkpt lat="46.92868" lon="-0.9618">
        <ele>206</ele>
        <time>2021-11-19T17:42:38Z</time>
      </trkpt>
      <trkpt lat="46.92852" lon="-0.96098">
        <ele>208</ele>
        <time>2021-11-19T17:43:25Z</time>
      </trkpt>
      <trkpt lat="46.92849" lon="-0.96011">
        <ele>208</ele>
        <time>2021-11-19T17:44:13Z</time>
      </trkpt>
      <trkpt lat="46.92845" lon="-0.95968">
        <ele>208</ele>
        <time>2021-11-19T17:44:36Z</time>
      </trkpt>
      <trkpt lat="46.92802" lon="-0.95833">
        <ele>206</ele>
        <time>2021-11-19T17:45:58Z</time>
      </trkpt>
      <trkpt lat="46.92804" lon="-0.95763">
        <ele>204</ele>
        <time>2021-11-19T17:46:36Z</time>
      </trkpt>
      <trkpt lat="46.92792" lon="-0.95743">
        <ele>204</ele>
        <time>2021-11-19T17:46:51Z</time>
      </trkpt>
      <trkpt lat="46.92779" lon="-0.95734">
        <ele>203</ele>
        <time>2021-11-19T17:47:02Z</time>
      </trkpt>
      <trkpt lat="46.92672" lon="-0.95738">
        <ele>205</ele>
        <time>2021-11-19T17:48:28Z</time>
      </trkpt>
      <trkpt lat="46.92642" lon="-0.95749">
        <ele>207</ele>
        <time>2021-11-19T17:48:53Z</time>
      </trkpt>
      <trkpt lat="46.92581" lon="-0.95704">
        <ele>206</ele>
        <time>2021-11-19T17:49:47Z</time>
      </trkpt>
      <trkpt lat="46.92533" lon="-0.95656">
        <ele>206</ele>
        <time>2021-11-19T17:50:34Z</time>
      </trkpt>
      <trkpt lat="46.92451" lon="-0.95497">
        <ele>206</ele>
        <time>2021-11-19T17:52:23Z</time>
      </trkpt>
      <trkpt lat="46.92399" lon="-0.95403">
        <ele>204</ele>
        <time>2021-11-19T17:53:29Z</time>
      </trkpt>
      <trkpt lat="46.9234" lon="-0.95325">
        <ele>202</ele>
        <time>2021-11-19T17:54:33Z</time>
      </trkpt>
      <trkpt lat="46.92294" lon="-0.95227">
        <ele>197</ele>
        <time>2021-11-19T17:55:38Z</time>
      </trkpt>
      <trkpt lat="46.92227" lon="-0.95178">
        <ele>196</ele>
        <time>2021-11-19T17:56:38Z</time>
      </trkpt>
      <trkpt lat="46.92161" lon="-0.9515">
        <ele>195</ele>
        <time>2021-11-19T17:57:33Z</time>
      </trkpt>
      <trkpt lat="46.92123" lon="-0.95129">
        <ele>194</ele>
        <time>2021-11-19T17:58:05Z</time>
      </trkpt>
      <trkpt lat="46.92103" lon="-0.95105">
        <ele>193</ele>
        <time>2021-11-19T17:58:26Z</time>
      </trkpt>
      <trkpt lat="46.9193" lon="-0.95053">
        <ele>187</ele>
        <time>2021-11-19T18:00:47Z</time>
      </trkpt>
      <trkpt lat="46.91903" lon="-0.95018">
        <ele>185</ele>
        <time>2021-11-19T18:01:16Z</time>
      </trkpt>
      <trkpt lat="46.91843" lon="-0.94913">
        <ele>180</ele>
        <time>2021-11-19T18:02:31Z</time>
      </trkpt>
      <trkpt lat="46.9182" lon="-0.94894">
        <ele>178</ele>
        <time>2021-11-19T18:02:52Z</time>
      </trkpt>
      <trkpt lat="46.91784" lon="-0.94877">
        <ele>175</ele>
        <time>2021-11-19T18:03:23Z</time>
      </trkpt>
      <trkpt lat="46.91762" lon="-0.94828">
        <ele>174</ele>
        <time>2021-11-19T18:03:55Z</time>
      </trkpt>
      <trkpt lat="46.91732" lon="-0.94799">
        <ele>173</ele>
        <time>2021-11-19T18:04:23Z</time>
      </trkpt>
      <trkpt lat="46.9167" lon="-0.94845">
        <ele>173</ele>
        <time>2021-11-19T18:05:19Z</time>
      </trkpt>
      <trkpt lat="46.91626" lon="-0.94889">
        <ele>174</ele>
        <time>2021-11-19T18:06:02Z</time>
      </trkpt>
      <trkpt lat="46.9159" lon="-0.94944">
        <ele>176</ele>
        <time>2021-11-19T18:06:43Z</time>
      </trkpt>
      <trkpt lat="46.91627" lon="-0.94991">
        <ele>175</ele>
        <time>2021-11-19T18:07:23Z</time>
      </trkpt>
      <trkpt lat="46.91647" lon="-0.95032">
        <ele>176</ele>
        <time>2021-11-19T18:07:50Z</time>
      </trkpt>
      <trkpt lat="46.91655" lon="-0.95078">
        <ele>177</ele>
        <time>2021-11-19T18:08:16Z</time>
      </trkpt>
      <trkpt lat="46.91666" lon="-0.951">
        <ele>178</ele>
        <time>2021-11-19T18:08:31Z</time>
      </trkpt>
      <trkpt lat="46.91678" lon="-0.95163">
        <ele>180</ele>
        <time>2021-11-19T18:09:07Z</time>
      </trkpt>
      <trkpt lat="46.91692" lon="-0.95377">
        <ele>185</ele>
        <time>2021-11-19T18:11:04Z</time>
      </trkpt>
      <trkpt lat="46.917" lon="-0.95479">
        <ele>186</ele>
        <time>2021-11-19T18:12:01Z</time>
      </trkpt>
      <trkpt lat="46.91706" lon="-0.95577">
        <ele>187</ele>
        <time>2021-11-19T18:12:54Z</time>
      </trkpt>
      <trkpt lat="46.91719" lon="-0.95633">
        <ele>189</ele>
        <time>2021-11-19T18:13:27Z</time>
      </trkpt>
      <trkpt lat="46.91734" lon="-0.957">
        <ele>189</ele>
        <time>2021-11-19T18:14:05Z</time>
      </trkpt>
      <trkpt lat="46.91789" lon="-0.95821">
        <ele>187</ele>
        <time>2021-11-19T18:15:25Z</time>
      </trkpt>
      <trkpt lat="46.91801" lon="-0.95818">
        <ele>187</ele>
        <time>2021-11-19T18:15:35Z</time>
      </trkpt>
      <trkpt lat="46.91817" lon="-0.9582">
        <ele>186</ele>
        <time>2021-11-19T18:15:47Z</time>
      </trkpt>
      <trkpt lat="46.91826" lon="-0.95839">
        <ele>186</ele>
        <time>2021-11-19T18:16:00Z</time>
      </trkpt>
      <trkpt lat="46.9182" lon="-0.95864">
        <ele>187</ele>
        <time>2021-11-19T18:16:15Z</time>
      </trkpt>
      <trkpt lat="46.91843" lon="-0.95871">
        <ele>186</ele>
        <time>2021-11-19T18:16:33Z</time>
      </trkpt>
      <trkpt lat="46.91875" lon="-0.95896">
        <ele>186</ele>
        <time>2021-11-19T18:17:02Z</time>
      </trkpt>
      <trkpt lat="46.91872" lon="-0.95901">
        <ele>186</ele>
        <time>2021-11-19T18:17:06Z</time>
      </trkpt>
      <trkpt lat="46.91836" lon="-0.9588">
        <ele>187</ele>
        <time>2021-11-19T18:17:37Z</time>
      </trkpt>
      <trkpt lat="46.91824" lon="-0.95891">
        <ele>188</ele>
        <time>2021-11-19T18:17:48Z</time>
      </trkpt>
      <trkpt lat="46.91832" lon="-0.95994">
        <ele>193</ele>
        <time>2021-11-19T18:18:45Z</time>
      </trkpt>
      <trkpt lat="46.91825" lon="-0.96113">
        <ele>195</ele>
        <time>2021-11-19T18:19:50Z</time>
      </trkpt>
      <trkpt lat="46.91837" lon="-0.96188">
        <ele>193</ele>
        <time>2021-11-19T18:20:32Z</time>
      </trkpt>
      <trkpt lat="46.91833" lon="-0.96211">
        <ele>192</ele>
        <time>2021-11-19T18:20:45Z</time>
      </trkpt>
      <trkpt lat="46.91835" lon="-0.96222">
        <ele>192</ele>
        <time>2021-11-19T18:20:52Z</time>
      </trkpt>
      <trkpt lat="46.91854" lon="-0.96226">
        <ele>191</ele>
        <time>2021-11-19T18:21:07Z</time>
      </trkpt>
      <trkpt lat="46.91851" lon="-0.96254">
        <ele>192</ele>
        <time>2021-11-19T18:21:23Z</time>
      </trkpt>
      <trkpt lat="46.91814" lon="-0.96256">
        <ele>194</ele>
        <time>2021-11-19T18:21:52Z</time>
      </trkpt>
      <trkpt lat="46.91809" lon="-0.96264">
        <ele>194</ele>
        <time>2021-11-19T18:21:58Z</time>
      </trkpt>
      <trkpt lat="46.91792" lon="-0.96329">
        <ele>199</ele>
        <time>2021-11-19T18:22:36Z</time>
      </trkpt>
      <trkpt lat="46.9176" lon="-0.96432">
        <ele>204</ele>
        <time>2021-11-19T18:23:38Z</time>
      </trkpt>
      <trkpt lat="46.91736" lon="-0.96502">
        <ele>207</ele>
        <time>2021-11-19T18:24:21Z</time>
      </trkpt>
      <trkpt lat="46.9172" lon="-0.96571">
        <ele>206</ele>
        <time>2021-11-19T18:25:01Z</time>
      </trkpt>
      <trkpt lat="46.91713" lon="-0.967">
        <ele>209</ele>
        <time>2021-11-19T18:26:12Z</time>
      </trkpt>
      <trkpt lat="46.91715" lon="-0.96743">
        <ele>212</ele>
        <time>2021-11-19T18:26:35Z</time>
      </trkpt>
      <trkpt lat="46.91724" lon="-0.96789">
        <ele>214</ele>
        <time>2021-11-19T18:27:01Z</time>
      </trkpt>
      <trkpt lat="46.91731" lon="-0.96813">
        <ele>215</ele>
        <time>2021-11-19T18:27:16Z</time>
      </trkpt>
      <trkpt lat="46.91762" lon="-0.96833">
        <ele>213</ele>
        <time>2021-11-19T18:27:43Z</time>
      </trkpt>
      <trkpt lat="46.91764" lon="-0.96845">
        <ele>213</ele>
        <time>2021-11-19T18:27:49Z</time>
      </trkpt>
      <trkpt lat="46.9174" lon="-0.96853">
        <ele>216</ele>
        <time>2021-11-19T18:28:09Z</time>
      </trkpt>
      <trkpt lat="46.91744" lon="-0.96893">
        <ele>216</ele>
        <time>2021-11-19T18:28:31Z</time>
      </trkpt>
      <trkpt lat="46.91771" lon="-0.9697">
        <ele>216</ele>
        <time>2021-11-19T18:29:19Z</time>
      </trkpt>
      <trkpt lat="46.9179" lon="-0.97005">
        <ele>216</ele>
        <time>2021-11-19T18:29:43Z</time>
      </trkpt>
      <trkpt lat="46.91825" lon="-0.97047">
        <ele>212</ele>
        <time>2021-11-19T18:30:19Z</time>
      </trkpt>
      <trkpt lat="46.91838" lon="-0.9702">
        <ele>212</ele>
        <time>2021-11-19T18:30:37Z</time>
      </trkpt>
      <trkpt lat="46.91848" lon="-0.97025">
        <ele>211</ele>
        <time>2021-11-19T18:30:46Z</time>
      </trkpt>
      <trkpt lat="46.91855" lon="-0.9711">
        <ele>209</ele>
        <time>2021-11-19T18:31:33Z</time>
      </trkpt>
      <trkpt lat="46.91894" lon="-0.97144">
        <ele>205</ele>
        <time>2021-11-19T18:32:09Z</time>
      </trkpt>
      <trkpt lat="46.9191" lon="-0.9716">
        <ele>203</ele>
        <time>2021-11-19T18:32:24Z</time>
      </trkpt>
      <trkpt lat="46.91932" lon="-0.97169">
        <ele>202</ele>
        <time>2021-11-19T18:32:43Z</time>
      </trkpt>
      <trkpt lat="46.91979" lon="-0.97196">
        <ele>200</ele>
        <time>2021-11-19T18:33:23Z</time>
      </trkpt>
      <trkpt lat="46.92057" lon="-0.9722">
        <ele>197</ele>
        <time>2021-11-19T18:34:27Z</time>
      </trkpt>
      <trkpt lat="46.92116" lon="-0.97224">
        <ele>196</ele>
        <time>2021-11-19T18:35:14Z</time>
      </trkpt>
      <trkpt lat="46.92251" lon="-0.97253">
        <ele>200</ele>
        <time>2021-11-19T18:37:04Z</time>
      </trkpt>
      <trkpt lat="46.92265" lon="-0.97243">
        <ele>201</ele>
        <time>2021-11-19T18:37:16Z</time>
      </trkpt>
      <trkpt lat="46.92279" lon="-0.97227">
        <ele>202</ele>
        <time>2021-11-19T18:37:30Z</time>
      </trkpt>
      <trkpt lat="46.92282" lon="-0.972">
        <ele>202</ele>
        <time>2021-11-19T18:37:45Z</time>
      </trkpt>
      <trkpt lat="46.92286" lon="-0.97171">
        <ele>203</ele>
        <time>2021-11-19T18:38:01Z</time>
      </trkpt>
      <trkpt lat="46.92286" lon="-0.97134">
        <ele>204</ele>
        <time>2021-11-19T18:38:22Z</time>
      </trkpt>
      <trkpt lat="46.92298" lon="-0.97116">
        <ele>205</ele>
        <time>2021-11-19T18:38:35Z</time>
      </trkpt>
      <trkpt lat="46.92313" lon="-0.97142">
        <ele>205</ele>
        <time>2021-11-19T18:38:54Z</time>
      </trkpt>
      <trkpt lat="46.92335" lon="-0.97193">
        <ele>206</ele>
        <time>2021-11-19T18:39:27Z</time>
      </trkpt>
      <trkpt lat="46.92376" lon="-0.97271">
        <ele>207</ele>
        <time>2021-11-19T18:40:21Z</time>
      </trkpt>
      <trkpt lat="46.92413" lon="-0.97346">
        <ele>210</ele>
        <time>2021-11-19T18:41:11Z</time>
      </trkpt>
      <trkpt lat="46.92421" lon="-0.9736">
        <ele>210</ele>
        <time>2021-11-19T18:41:21Z</time>
      </trkpt>
      <trkpt lat="46.92433" lon="-0.97382">
        <ele>211</ele>
        <time>2021-11-19T18:41:37Z</time>
      </trkpt>
      <trkpt lat="46.92448" lon="-0.97411">
        <ele>211</ele>
        <time>2021-11-19T18:41:57Z</time>
      </trkpt>
      <trkpt lat="46.92478" lon="-0.97469">
        <ele>211</ele>
        <time>2021-11-19T18:42:36Z</time>
      </trkpt>
      <trkpt lat="46.9254" lon="-0.97617">
        <ele>205</ele>
        <time>2021-11-19T18:44:11Z</time>
      </trkpt>
      <trkpt lat="46.9258" lon="-0.97708">
        <ele>200</ele>
        <time>2021-11-19T18:45:11Z</time>
      </trkpt>
      <trkpt lat="46.9261" lon="-0.97782">
        <ele>198</ele>
        <time>2021-11-19T18:45:58Z</time>
      </trkpt>
      <trkpt lat="46.92615" lon="-0.97797">
        <ele>198</ele>
        <time>2021-11-19T18:46:07Z</time>
      </trkpt>
      <trkpt lat="46.92696" lon="-0.97923">
        <ele>194</ele>
        <time>2021-11-19T18:47:41Z</time>
      </trkpt>
      <trkpt lat="46.92719" lon="-0.97963">
        <ele>192</ele>
        <time>2021-11-19T18:48:10Z</time>
      </trkpt>
      <trkpt lat="46.92732" lon="-0.98">
        <ele>192</ele>
        <time>2021-11-19T18:48:33Z</time>
      </trkpt>
      <trkpt lat="46.92749" lon="-0.98058">
        <ele>189</ele>
        <time>2021-11-19T18:49:07Z</time>
      </trkpt>
      <trkpt lat="46.92758" lon="-0.98109">
        <ele>187</ele>
        <time>2021-11-19T18:49:36Z</time>
      </trkpt>
      <trkpt lat="46.92765" lon="-0.98161">
        <ele>187</ele>
        <time>2021-11-19T18:50:05Z</time>
      </trkpt>
      <trkpt lat="46.92767" lon="-0.98192">
        <ele>187</ele>
        <time>2021-11-19T18:50:22Z</time>
      </trkpt>
      <trkpt lat="46.92775" lon="-0.98227">
        <ele>187</ele>
        <time>2021-11-19T18:50:42Z</time>
      </trkpt>
      <trkpt lat="46.92784" lon="-0.98254">
        <ele>187</ele>
        <time>2021-11-19T18:50:59Z</time>
      </trkpt>
      <trkpt lat="46.92802" lon="-0.98292">
        <ele>186</ele>
        <time>2021-11-19T18:51:24Z</time>
      </trkpt>
      <trkpt lat="46.92825" lon="-0.98333">
        <ele>186</ele>
        <time>2021-11-19T18:51:53Z</time>
      </trkpt>
      <trkpt lat="46.9284" lon="-0.98355">
        <ele>186</ele>
        <time>2021-11-19T18:52:10Z</time>
      </trkpt>
      <trkpt lat="46.92847" lon="-0.98379">
        <ele>185</ele>
        <time>2021-11-19T18:52:24Z</time>
      </trkpt>
      <trkpt lat="46.92861" lon="-0.98421">
        <ele>185</ele>
        <time>2021-11-19T18:52:50Z</time>
      </trkpt>
      <trkpt lat="46.92868" lon="-0.9846">
        <ele>185</ele>
        <time>2021-11-19T18:53:12Z</time>
      </trkpt>
      <trkpt lat="46.92878" lon="-0.98506">
        <ele>184</ele>
        <time>2021-11-19T18:53:38Z</time>
      </trkpt>
      <trkpt lat="46.92888" lon="-0.98553">
        <ele>184</ele>
        <time>2021-11-19T18:54:05Z</time>
      </trkpt>
      <trkpt lat="46.92896" lon="-0.98607">
        <ele>184</ele>
        <time>2021-11-19T18:54:35Z</time>
      </trkpt>
      <trkpt lat="46.92899" lon="-0.98621">
        <ele>184</ele>
        <time>2021-11-19T18:54:43Z</time>
      </trkpt>
      <trkpt lat="46.92884" lon="-0.98619">
        <ele>183</ele>
        <time>2021-11-19T18:54:55Z</time>
      </trkpt>
      <trkpt lat="46.92877" lon="-0.9859">
        <ele>183</ele>
        <time>2021-11-19T18:55:12Z</time>
      </trkpt>
      <trkpt lat="46.92871" lon="-0.9855">
        <ele>184</ele>
        <time>2021-11-19T18:55:35Z</time>
      </trkpt>
      <trkpt lat="46.92854" lon="-0.98481">
        <ele>184</ele>
        <time>2021-11-19T18:56:15Z</time>
      </trkpt>
      <trkpt lat="46.92847" lon="-0.98436">
        <ele>185</ele>
        <time>2021-11-19T18:56:40Z</time>
      </trkpt>
      <trkpt lat="46.92841" lon="-0.98412">
        <ele>185</ele>
        <time>2021-11-19T18:56:54Z</time>
      </trkpt>
      <trkpt lat="46.92839" lon="-0.98395">
        <ele>185</ele>
        <time>2021-11-19T18:57:03Z</time>
      </trkpt>
      <trkpt lat="46.92818" lon="-0.98352">
        <ele>186</ele>
        <time>2021-11-19T18:57:32Z</time>
      </trkpt>
      <trkpt lat="46.9279" lon="-0.98306">
        <ele>187</ele>
        <time>2021-11-19T18:58:06Z</time>
      </trkpt>
      <trkpt lat="46.9277" lon="-0.98266">
        <ele>187</ele>
        <time>2021-11-19T18:58:33Z</time>
      </trkpt>
      <trkpt lat="46.92759" lon="-0.98227">
        <ele>187</ele>
        <time>2021-11-19T18:58:56Z</time>
      </trkpt>
      <trkpt lat="46.92749" lon="-0.98175">
        <ele>187</ele>
        <time>2021-11-19T18:59:26Z</time>
      </trkpt>
      <trkpt lat="46.92743" lon="-0.98127">
        <ele>188</ele>
        <time>2021-11-19T18:59:52Z</time>
      </trkpt>
      <trkpt lat="46.92732" lon="-0.98062">
        <ele>189</ele>
        <time>2021-11-19T19:00:29Z</time>
      </trkpt>
      <trkpt lat="46.92724" lon="-0.98026">
        <ele>191</ele>
        <time>2021-11-19T19:00:50Z</time>
      </trkpt>
      <trkpt lat="46.92709" lon="-0.97987">
        <ele>193</ele>
        <time>2021-11-19T19:01:14Z</time>
      </trkpt>
      <trkpt lat="46.9269" lon="-0.97947">
        <ele>194</ele>
        <time>2021-11-19T19:01:41Z</time>
      </trkpt>
      <trkpt lat="46.92656" lon="-0.97895">
        <ele>197</ele>
        <time>2021-11-19T19:02:20Z</time>
      </trkpt>
      <trkpt lat="46.92623" lon="-0.97845">
        <ele>199</ele>
        <time>2021-11-19T19:02:58Z</time>
      </trkpt>
      <trkpt lat="46.92603" lon="-0.97805">
        <ele>199</ele>
        <time>2021-11-19T19:03:25Z</time>
      </trkpt>
      <trkpt lat="46.92569" lon="-0.97732">
        <ele>200</ele>
        <time>2021-11-19T19:04:14Z</time>
      </trkpt>
      <trkpt lat="46.92535" lon="-0.9765">
        <ele>204</ele>
        <time>2021-11-19T19:05:06Z</time>
      </trkpt>
      <trkpt lat="46.92497" lon="-0.97574">
        <ele>207</ele>
        <time>2021-11-19T19:05:58Z</time>
      </trkpt>
      <trkpt lat="46.92454" lon="-0.97497">
        <ele>211</ele>
        <time>2021-11-19T19:06:52Z</time>
      </trkpt>
      <trkpt lat="46.92418" lon="-0.97443">
        <ele>211</ele>
        <time>2021-11-19T19:07:33Z</time>
      </trkpt>
      <trkpt lat="46.92378" lon="-0.97394">
        <ele>209</ele>
        <time>2021-11-19T19:08:15Z</time>
      </trkpt>
      <trkpt lat="46.92356" lon="-0.97373">
        <ele>208</ele>
        <time>2021-11-19T19:08:36Z</time>
      </trkpt>
      <trkpt lat="46.92318" lon="-0.97334">
        <ele>205</ele>
        <time>2021-11-19T19:09:13Z</time>
      </trkpt>
      <trkpt lat="46.92313" lon="-0.97326">
        <ele>205</ele>
        <time>2021-11-19T19:09:19Z</time>
      </trkpt>
      <trkpt lat="46.92312" lon="-0.97315">
        <ele>204</ele>
        <time>2021-11-19T19:09:25Z</time>
      </trkpt>
      <trkpt lat="46.92322" lon="-0.97302">
        <ele>205</ele>
        <time>2021-11-19T19:09:36Z</time>
      </trkpt>
      <trkpt lat="46.92318" lon="-0.97284">
        <ele>204</ele>
        <time>2021-11-19T19:09:46Z</time>
      </trkpt>
      <trkpt lat="46.92319" lon="-0.97267">
        <ele>204</ele>
        <time>2021-11-19T19:09:56Z</time>
      </trkpt>
      <trkpt lat="46.92303" lon="-0.97248">
        <ele>203</ele>
        <time>2021-11-19T19:10:12Z</time>
      </trkpt>
      <trkpt lat="46.92313" lon="-0.9723">
        <ele>204</ele>
        <time>2021-11-19T19:10:25Z</time>
      </trkpt>
      <trkpt lat="46.92312" lon="-0.97211">
        <ele>204</ele>
        <time>2021-11-19T19:10:35Z</time>
      </trkpt>
      <trkpt lat="46.92305" lon="-0.97185">
        <ele>204</ele>
        <time>2021-11-19T19:10:50Z</time>
      </trkpt>
      <trkpt lat="46.92293" lon="-0.97168">
        <ele>203</ele>
        <time>2021-11-19T19:11:04Z</time>
      </trkpt>
    </trkseg>
  </trk>
</gpx>